sensor_id;sensor_type;location;lat;lon;timestamp;temperature;humidity
11838;DHT22;5978;51.020;6.764;2023-08-01T00:00:01;17.70;99.90
11838;DHT22;5978;51.020;6.764;2023-08-01T00:02:28;17.70;99.90
11838;DHT22;5978;51.020;6.764;2023-08-01T00:04:54;17.70;99.90
11838;DHT22;5978;51.020;6.764;2023-08-01T00:07:19;17.80;99.90
11838;DHT22;5978;51.020;6.764;2023-08-01T00:09:45;17.80;99.90
11838;DHT22;5978;51.020;6.764;2023-08-01T00:12:11;17.80;99.90
11838;DHT22;5978;51.020;6.764;2023-08-01T00:14:36;17.80;99.90
11838;DHT22;5978;51.020;6.764;2023-08-01T00:17:05;17.80;99.90
11838;DHT22;5978;51.020;6.764;2023-08-01T00:19:31;17.80;99.90
11838;DHT22;5978;51.020;6.764;2023-08-01T00:21:56;17.80;99.90
11838;DHT22;5978;51.020;6.764;2023-08-01T00:24:22;17.70;99.90
11838;DHT22;5978;51.020;6.764;2023-08-01T00:26:48;17.60;99.90
11838;DHT22;5978;51.020;6.764;2023-08-01T00:29:13;17.60;99.90
11838;DHT22;5978;51.020;6.764;2023-08-01T00:31:39;17.60;99.90
11838;DHT22;5978;51.020;6.764;2023-08-01T00:34:04;17.60;99.90
11838;DHT22;5978;51.020;6.764;2023-08-01T00:36:30;17.60;99.90
11838;DHT22;5978;51.020;6.764;2023-08-01T00:38:55;17.50;99.90
11838;DHT22;5978;51.020;6.764;2023-08-01T00:41:21;17.60;99.90
11838;DHT22;5978;51.020;6.764;2023-08-01T00:43:47;17.60;99.90
11838;DHT22;5978;51.020;6.764;2023-08-01T00:46:12;17.60;99.90
11838;DHT22;5978;51.020;6.764;2023-08-01T00:48:38;17.60;99.90
11838;DHT22;5978;51.020;6.764;2023-08-01T00:51:06;17.60;99.90
11838;DHT22;5978;51.020;6.764;2023-08-01T00:53:32;17.60;99.90
11838;DHT22;5978;51.020;6.764;2023-08-01T00:55:58;17.60;99.90
11838;DHT22;5978;51.020;6.764;2023-08-01T00:58:25;17.60;99.90
11838;DHT22;5978;51.020;6.764;2023-08-01T01:00:51;17.60;99.90
11838;DHT22;5978;51.020;6.764;2023-08-01T01:03:17;17.70;99.90
11838;DHT22;5978;51.020;6.764;2023-08-01T01:05:49;17.70;99.90
11838;DHT22;5978;51.020;6.764;2023-08-01T01:08:17;17.70;99.90
11838;DHT22;5978;51.020;6.764;2023-08-01T01:10:43;17.70;99.90
11838;DHT22;5978;51.020;6.764;2023-08-01T01:13:09;17.70;99.90
11838;DHT22;5978;51.020;6.764;2023-08-01T01:15:34;17.70;99.90
11838;DHT22;5978;51.020;6.764;2023-08-01T01:18:00;17.70;99.90
11838;DHT22;5978;51.020;6.764;2023-08-01T01:20:25;17.70;99.90
11838;DHT22;5978;51.020;6.764;2023-08-01T01:22:52;17.60;99.90
11838;DHT22;5978;51.020;6.764;2023-08-01T01:25:20;17.50;99.90
11838;DHT22;5978;51.020;6.764;2023-08-01T01:27:49;17.50;99.90
11838;DHT22;5978;51.020;6.764;2023-08-01T01:30:15;17.50;99.90
11838;DHT22;5978;51.020;6.764;2023-08-01T01:32:41;17.50;99.90
11838;DHT22;5978;51.020;6.764;2023-08-01T01:35:07;17.50;99.90
11838;DHT22;5978;51.020;6.764;2023-08-01T01:37:33;17.40;99.90
11838;DHT22;5978;51.020;6.764;2023-08-01T01:39:58;17.30;99.90
11838;DHT22;5978;51.020;6.764;2023-08-01T01:45:36;17.30;99.90
11838;DHT22;5978;51.020;6.764;2023-08-01T01:48:01;17.30;99.90
11838;DHT22;5978;51.020;6.764;2023-08-01T01:50:27;17.30;99.90
11838;DHT22;5978;51.020;6.764;2023-08-01T01:52:52;17.30;99.90
11838;DHT22;5978;51.020;6.764;2023-08-01T01:55:18;17.30;99.90
11838;DHT22;5978;51.020;6.764;2023-08-01T01:57:44;17.30;99.90
11838;DHT22;5978;51.020;6.764;2023-08-01T02:00:10;17.30;99.90
11838;DHT22;5978;51.020;6.764;2023-08-01T02:02:36;17.30;99.90
11838;DHT22;5978;51.020;6.764;2023-08-01T02:05:02;17.30;99.90
11838;DHT22;5978;51.020;6.764;2023-08-01T02:07:29;17.30;99.90
11838;DHT22;5978;51.020;6.764;2023-08-01T02:09:55;17.20;99.90
11838;DHT22;5978;51.020;6.764;2023-08-01T02:12:21;17.20;99.90
11838;DHT22;5978;51.020;6.764;2023-08-01T02:14:46;17.20;99.90
11838;DHT22;5978;51.020;6.764;2023-08-01T02:17:12;17.10;99.90
11838;DHT22;5978;51.020;6.764;2023-08-01T02:19:38;17.10;99.90
11838;DHT22;5978;51.020;6.764;2023-08-01T02:22:04;17.10;99.90
11838;DHT22;5978;51.020;6.764;2023-08-01T02:24:30;17.00;99.90
11838;DHT22;5978;51.020;6.764;2023-08-01T02:26:55;17.00;99.90
11838;DHT22;5978;51.020;6.764;2023-08-01T02:29:21;17.00;99.90
11838;DHT22;5978;51.020;6.764;2023-08-01T02:31:46;17.00;99.90
11838;DHT22;5978;51.020;6.764;2023-08-01T02:34:12;16.90;99.90
11838;DHT22;5978;51.020;6.764;2023-08-01T02:36:38;16.90;99.90
11838;DHT22;5978;51.020;6.764;2023-08-01T02:39:06;17.00;99.90
11838;DHT22;5978;51.020;6.764;2023-08-01T02:41:31;17.00;99.90
11838;DHT22;5978;51.020;6.764;2023-08-01T02:43:57;17.10;99.90
11838;DHT22;5978;51.020;6.764;2023-08-01T02:46:22;17.00;99.90
11838;DHT22;5978;51.020;6.764;2023-08-01T02:48:48;17.00;99.90
11838;DHT22;5978;51.020;6.764;2023-08-01T02:51:14;17.00;99.90
11838;DHT22;5978;51.020;6.764;2023-08-01T02:53:39;17.00;99.90
11838;DHT22;5978;51.020;6.764;2023-08-01T02:56:08;17.00;99.90
11838;DHT22;5978;51.020;6.764;2023-08-01T02:58:35;17.00;99.90
11838;DHT22;5978;51.020;6.764;2023-08-01T03:01:01;16.90;99.90
11838;DHT22;5978;51.020;6.764;2023-08-01T03:03:27;16.90;99.90
11838;DHT22;5978;51.020;6.764;2023-08-01T03:05:52;16.80;99.90
11838;DHT22;5978;51.020;6.764;2023-08-01T03:08:18;16.80;99.90
11838;DHT22;5978;51.020;6.764;2023-08-01T03:10:45;16.70;99.90
11838;DHT22;5978;51.020;6.764;2023-08-01T03:13:10;16.80;99.90
11838;DHT22;5978;51.020;6.764;2023-08-01T03:15:37;16.70;99.90
11838;DHT22;5978;51.020;6.764;2023-08-01T03:18:02;16.70;99.90
11838;DHT22;5978;51.020;6.764;2023-08-01T03:20:29;16.70;99.90
11838;DHT22;5978;51.020;6.764;2023-08-01T03:22:55;16.70;99.90
11838;DHT22;5978;51.020;6.764;2023-08-01T03:25:20;16.70;99.90
11838;DHT22;5978;51.020;6.764;2023-08-01T03:27:46;16.70;99.90
11838;DHT22;5978;51.020;6.764;2023-08-01T03:30:11;16.60;99.90
11838;DHT22;5978;51.020;6.764;2023-08-01T03:32:37;16.60;99.90
11838;DHT22;5978;51.020;6.764;2023-08-01T03:35:06;16.50;99.90
11838;DHT22;5978;51.020;6.764;2023-08-01T03:37:32;16.50;99.90
11838;DHT22;5978;51.020;6.764;2023-08-01T03:39:58;16.50;99.90
11838;DHT22;5978;51.020;6.764;2023-08-01T03:42:23;16.40;99.90
11838;DHT22;5978;51.020;6.764;2023-08-01T03:44:49;16.40;99.90
11838;DHT22;5978;51.020;6.764;2023-08-01T03:47:14;16.40;99.90
11838;DHT22;5978;51.020;6.764;2023-08-01T03:49:40;16.40;99.90
11838;DHT22;5978;51.020;6.764;2023-08-01T03:52:06;16.30;99.90
11838;DHT22;5978;51.020;6.764;2023-08-01T03:54:32;16.30;99.90
11838;DHT22;5978;51.020;6.764;2023-08-01T03:56:57;16.30;99.90
11838;DHT22;5978;51.020;6.764;2023-08-01T03:59:23;16.30;99.90
11838;DHT22;5978;51.020;6.764;2023-08-01T04:01:48;16.30;99.90
11838;DHT22;5978;51.020;6.764;2023-08-01T04:04:15;16.30;99.90
11838;DHT22;5978;51.020;6.764;2023-08-01T04:06:42;16.20;99.90
11838;DHT22;5978;51.020;6.764;2023-08-01T04:09:07;16.20;99.90
11838;DHT22;5978;51.020;6.764;2023-08-01T04:11:33;16.20;99.90
11838;DHT22;5978;51.020;6.764;2023-08-01T04:13:58;16.20;99.90
11838;DHT22;5978;51.020;6.764;2023-08-01T04:16:24;16.20;99.90
11838;DHT22;5978;51.020;6.764;2023-08-01T04:18:50;16.20;99.90
11838;DHT22;5978;51.020;6.764;2023-08-01T04:21:15;16.20;99.90
11838;DHT22;5978;51.020;6.764;2023-08-01T04:23:41;16.30;99.90
11838;DHT22;5978;51.020;6.764;2023-08-01T04:26:07;16.30;99.90
11838;DHT22;5978;51.020;6.764;2023-08-01T04:28:33;16.30;99.90
11838;DHT22;5978;51.020;6.764;2023-08-01T04:30:59;16.30;99.90
11838;DHT22;5978;51.020;6.764;2023-08-01T04:33:25;16.30;99.90
11838;DHT22;5978;51.020;6.764;2023-08-01T04:35:50;16.30;99.90
11838;DHT22;5978;51.020;6.764;2023-08-01T04:38:16;16.30;99.90
11838;DHT22;5978;51.020;6.764;2023-08-01T04:40:42;16.30;99.90
11838;DHT22;5978;51.020;6.764;2023-08-01T04:43:07;16.30;99.90
11838;DHT22;5978;51.020;6.764;2023-08-01T04:45:33;16.30;99.90
11838;DHT22;5978;51.020;6.764;2023-08-01T04:47:58;16.20;99.90
11838;DHT22;5978;51.020;6.764;2023-08-01T04:50:24;16.20;99.90
11838;DHT22;5978;51.020;6.764;2023-08-01T04:52:49;16.30;99.90
11838;DHT22;5978;51.020;6.764;2023-08-01T04:55:15;16.20;99.90
11838;DHT22;5978;51.020;6.764;2023-08-01T04:57:41;16.20;99.90
11838;DHT22;5978;51.020;6.764;2023-08-01T05:00:09;16.20;99.90
11838;DHT22;5978;51.020;6.764;2023-08-01T05:02:34;16.10;99.90
11838;DHT22;5978;51.020;6.764;2023-08-01T05:05:00;16.10;99.90
11838;DHT22;5978;51.020;6.764;2023-08-01T05:07:26;16.10;99.90
11838;DHT22;5978;51.020;6.764;2023-08-01T05:09:51;16.00;99.90
11838;DHT22;5978;51.020;6.764;2023-08-01T05:12:17;16.00;99.90
11838;DHT22;5978;51.020;6.764;2023-08-01T05:14:42;16.00;99.90
11838;DHT22;5978;51.020;6.764;2023-08-01T05:17:08;16.00;99.90
11838;DHT22;5978;51.020;6.764;2023-08-01T05:19:33;16.00;99.90
11838;DHT22;5978;51.020;6.764;2023-08-01T05:21:59;15.90;99.90
11838;DHT22;5978;51.020;6.764;2023-08-01T05:24:24;15.90;99.90
11838;DHT22;5978;51.020;6.764;2023-08-01T05:26:50;15.90;99.90
11838;DHT22;5978;51.020;6.764;2023-08-01T05:29:15;15.90;99.90
11838;DHT22;5978;51.020;6.764;2023-08-01T05:31:41;16.00;99.90
11838;DHT22;5978;51.020;6.764;2023-08-01T05:34:07;15.90;99.90
11838;DHT22;5978;51.020;6.764;2023-08-01T05:36:32;15.90;99.90
11838;DHT22;5978;51.020;6.764;2023-08-01T05:38:58;16.00;99.90
11838;DHT22;5978;51.020;6.764;2023-08-01T05:41:23;16.00;99.90
11838;DHT22;5978;51.020;6.764;2023-08-01T05:43:49;16.10;99.90
11838;DHT22;5978;51.020;6.764;2023-08-01T05:46:15;16.10;99.90
11838;DHT22;5978;51.020;6.764;2023-08-01T05:48:41;16.10;99.90
11838;DHT22;5978;51.020;6.764;2023-08-01T05:51:07;16.00;99.90
11838;DHT22;5978;51.020;6.764;2023-08-01T05:53:32;16.10;99.90
11838;DHT22;5978;51.020;6.764;2023-08-01T05:55:58;16.10;99.90
11838;DHT22;5978;51.020;6.764;2023-08-01T05:58:58;16.20;99.90
11838;DHT22;5978;51.020;6.764;2023-08-01T06:01:42;16.30;99.90
11838;DHT22;5978;51.020;6.764;2023-08-01T06:04:11;16.30;99.90
11838;DHT22;5978;51.020;6.764;2023-08-01T06:06:37;16.30;99.90
11838;DHT22;5978;51.020;6.764;2023-08-01T06:09:03;16.40;99.90
11838;DHT22;5978;51.020;6.764;2023-08-01T06:11:28;16.40;99.90
11838;DHT22;5978;51.020;6.764;2023-08-01T06:13:54;16.40;99.90
11838;DHT22;5978;51.020;6.764;2023-08-01T06:16:19;16.50;99.90
11838;DHT22;5978;51.020;6.764;2023-08-01T06:18:45;16.50;99.90
11838;DHT22;5978;51.020;6.764;2023-08-01T06:21:11;16.50;99.90
11838;DHT22;5978;51.020;6.764;2023-08-01T06:23:37;16.50;99.90
11838;DHT22;5978;51.020;6.764;2023-08-01T06:26:02;16.60;99.90
11838;DHT22;5978;51.020;6.764;2023-08-01T06:28:28;16.60;99.90
11838;DHT22;5978;51.020;6.764;2023-08-01T06:30:53;16.70;99.90
11838;DHT22;5978;51.020;6.764;2023-08-01T06:33:19;16.90;99.90
11838;DHT22;5978;51.020;6.764;2023-08-01T06:35:44;17.10;99.90
11838;DHT22;5978;51.020;6.764;2023-08-01T06:38:10;17.20;99.90
11838;DHT22;5978;51.020;6.764;2023-08-01T06:40:35;17.20;99.90
11838;DHT22;5978;51.020;6.764;2023-08-01T06:43:01;17.20;99.90
11838;DHT22;5978;51.020;6.764;2023-08-01T06:45:27;17.20;99.90
11838;DHT22;5978;51.020;6.764;2023-08-01T06:47:52;17.30;99.90
11838;DHT22;5978;51.020;6.764;2023-08-01T06:50:18;17.30;99.90
11838;DHT22;5978;51.020;6.764;2023-08-01T06:52:44;17.30;99.90
11838;DHT22;5978;51.020;6.764;2023-08-01T06:55:09;17.30;99.90
11838;DHT22;5978;51.020;6.764;2023-08-01T06:57:35;17.20;99.90
11838;DHT22;5978;51.020;6.764;2023-08-01T07:00:00;17.20;99.90
11838;DHT22;5978;51.020;6.764;2023-08-01T07:02:26;17.20;99.90
11838;DHT22;5978;51.020;6.764;2023-08-01T07:04:52;17.30;99.90
11838;DHT22;5978;51.020;6.764;2023-08-01T07:07:18;17.30;99.90
11838;DHT22;5978;51.020;6.764;2023-08-01T07:09:43;17.40;99.90
11838;DHT22;5978;51.020;6.764;2023-08-01T07:12:09;17.50;99.90
11838;DHT22;5978;51.020;6.764;2023-08-01T07:14:35;17.50;99.90
11838;DHT22;5978;51.020;6.764;2023-08-01T07:17:01;17.70;99.90
11838;DHT22;5978;51.020;6.764;2023-08-01T07:19:27;17.80;99.90
11838;DHT22;5978;51.020;6.764;2023-08-01T07:21:52;17.70;99.90
11838;DHT22;5978;51.020;6.764;2023-08-01T07:24:18;17.70;99.90
11838;DHT22;5978;51.020;6.764;2023-08-01T07:26:44;17.70;99.90
11838;DHT22;5978;51.020;6.764;2023-08-01T07:29:10;17.70;99.90
11838;DHT22;5978;51.020;6.764;2023-08-01T07:31:37;17.80;99.90
11838;DHT22;5978;51.020;6.764;2023-08-01T07:34:11;18.00;99.90
11838;DHT22;5978;51.020;6.764;2023-08-01T07:37:11;18.20;99.90
11838;DHT22;5978;51.020;6.764;2023-08-01T07:39:42;18.30;99.90
11838;DHT22;5978;51.020;6.764;2023-08-01T07:42:08;18.30;99.90
11838;DHT22;5978;51.020;6.764;2023-08-01T07:45:11;18.30;99.90
11838;DHT22;5978;51.020;6.764;2023-08-01T07:47:42;18.50;99.90
11838;DHT22;5978;51.020;6.764;2023-08-01T07:50:11;18.80;99.90
11838;DHT22;5978;51.020;6.764;2023-08-01T07:52:37;18.90;99.90
11838;DHT22;5978;51.020;6.764;2023-08-01T07:55:02;18.90;99.90
11838;DHT22;5978;51.020;6.764;2023-08-01T07:57:28;18.80;99.90
11838;DHT22;5978;51.020;6.764;2023-08-01T07:59:54;18.80;99.90
11838;DHT22;5978;51.020;6.764;2023-08-01T08:02:20;18.90;99.90
11838;DHT22;5978;51.020;6.764;2023-08-01T08:04:45;18.90;99.90
11838;DHT22;5978;51.020;6.764;2023-08-01T08:07:11;19.00;99.90
11838;DHT22;5978;51.020;6.764;2023-08-01T08:09:37;19.10;99.90
11838;DHT22;5978;51.020;6.764;2023-08-01T08:12:02;19.40;99.90
11838;DHT22;5978;51.020;6.764;2023-08-01T08:14:28;19.60;99.90
11838;DHT22;5978;51.020;6.764;2023-08-01T08:16:55;19.60;99.90
11838;DHT22;5978;51.020;6.764;2023-08-01T08:19:21;19.10;99.90
11838;DHT22;5978;51.020;6.764;2023-08-01T08:21:49;18.80;99.90
11838;DHT22;5978;51.020;6.764;2023-08-01T08:24:14;18.80;99.90
11838;DHT22;5978;51.020;6.764;2023-08-01T08:27:11;18.60;99.90
11838;DHT22;5978;51.020;6.764;2023-08-01T08:29:36;18.60;99.90
11838;DHT22;5978;51.020;6.764;2023-08-01T08:32:02;18.80;99.90
11838;DHT22;5978;51.020;6.764;2023-08-01T08:34:28;18.90;99.90
11838;DHT22;5978;51.020;6.764;2023-08-01T08:36:54;19.20;99.90
11838;DHT22;5978;51.020;6.764;2023-08-01T08:39:19;19.30;99.90
11838;DHT22;5978;51.020;6.764;2023-08-01T08:41:47;19.20;99.90
11838;DHT22;5978;51.020;6.764;2023-08-01T08:44:16;19.30;99.90
11838;DHT22;5978;51.020;6.764;2023-08-01T08:46:43;19.50;99.90
11838;DHT22;5978;51.020;6.764;2023-08-01T08:49:10;19.40;99.90
11838;DHT22;5978;51.020;6.764;2023-08-01T08:51:38;19.50;99.90
11838;DHT22;5978;51.020;6.764;2023-08-01T08:54:05;19.30;99.90
11838;DHT22;5978;51.020;6.764;2023-08-01T08:56:31;19.00;99.90
11838;DHT22;5978;51.020;6.764;2023-08-01T08:58:59;19.00;99.90
11838;DHT22;5978;51.020;6.764;2023-08-01T09:01:25;19.30;99.90
11838;DHT22;5978;51.020;6.764;2023-08-01T09:03:51;19.70;99.90
11838;DHT22;5978;51.020;6.764;2023-08-01T09:06:23;20.20;99.90
11838;DHT22;5978;51.020;6.764;2023-08-01T09:09:01;20.30;99.90
11838;DHT22;5978;51.020;6.764;2023-08-01T09:11:27;19.90;99.90
11838;DHT22;5978;51.020;6.764;2023-08-01T09:13:52;19.70;99.90
11838;DHT22;5978;51.020;6.764;2023-08-01T09:16:18;19.80;99.90
11838;DHT22;5978;51.020;6.764;2023-08-01T09:18:51;20.10;99.90
11838;DHT22;5978;51.020;6.764;2023-08-01T09:21:18;20.20;99.90
11838;DHT22;5978;51.020;6.764;2023-08-01T09:23:44;20.20;99.90
11838;DHT22;5978;51.020;6.764;2023-08-01T09:26:18;20.30;99.90
11838;DHT22;5978;51.020;6.764;2023-08-01T09:28:43;20.70;99.90
11838;DHT22;5978;51.020;6.764;2023-08-01T09:31:38;20.80;99.90
11838;DHT22;5978;51.020;6.764;2023-08-01T09:34:06;20.90;99.90
11838;DHT22;5978;51.020;6.764;2023-08-01T09:36:42;21.30;99.90
11838;DHT22;5978;51.020;6.764;2023-08-01T09:39:15;21.10;99.90
11838;DHT22;5978;51.020;6.764;2023-08-01T09:41:41;21.10;99.90
11838;DHT22;5978;51.020;6.764;2023-08-01T09:44:11;21.20;99.90
11838;DHT22;5978;51.020;6.764;2023-08-01T09:46:37;21.30;99.90
11838;DHT22;5978;51.020;6.764;2023-08-01T09:49:09;21.00;99.90
11838;DHT22;5978;51.020;6.764;2023-08-01T09:51:49;21.00;99.90
11838;DHT22;5978;51.020;6.764;2023-08-01T09:54:16;21.20;99.90
11838;DHT22;5978;51.020;6.764;2023-08-01T09:56:44;21.20;99.90
11838;DHT22;5978;51.020;6.764;2023-08-01T09:59:11;21.20;99.90
11838;DHT22;5978;51.020;6.764;2023-08-01T10:01:38;20.80;99.90
11838;DHT22;5978;51.020;6.764;2023-08-01T10:04:04;21.00;99.90
11838;DHT22;5978;51.020;6.764;2023-08-01T10:06:33;21.20;99.90
11838;DHT22;5978;51.020;6.764;2023-08-01T10:08:59;21.20;99.90
11838;DHT22;5978;51.020;6.764;2023-08-01T10:11:26;21.30;99.90
11838;DHT22;5978;51.020;6.764;2023-08-01T10:13:52;21.30;99.90
11838;DHT22;5978;51.020;6.764;2023-08-01T10:16:18;21.60;99.90
11838;DHT22;5978;51.020;6.764;2023-08-01T10:18:44;21.50;99.90
11838;DHT22;5978;51.020;6.764;2023-08-01T10:21:15;21.30;99.90
11838;DHT22;5978;51.020;6.764;2023-08-01T10:23:43;21.20;99.90
11838;DHT22;5978;51.020;6.764;2023-08-01T10:26:09;21.00;99.90
11838;DHT22;5978;51.020;6.764;2023-08-01T10:28:38;20.90;99.90
11838;DHT22;5978;51.020;6.764;2023-08-01T10:31:12;20.80;99.90
11838;DHT22;5978;51.020;6.764;2023-08-01T10:33:42;21.00;99.90
11838;DHT22;5978;51.020;6.764;2023-08-01T10:36:18;21.20;99.90
11838;DHT22;5978;51.020;6.764;2023-08-01T10:38:51;21.90;99.90
11838;DHT22;5978;51.020;6.764;2023-08-01T10:41:30;22.20;99.90
11838;DHT22;5978;51.020;6.764;2023-08-01T10:44:11;22.70;99.90
11838;DHT22;5978;51.020;6.764;2023-08-01T10:46:49;22.30;99.90
11838;DHT22;5978;51.020;6.764;2023-08-01T10:49:16;22.20;99.90
11838;DHT22;5978;51.020;6.764;2023-08-01T10:51:43;21.90;99.90
11838;DHT22;5978;51.020;6.764;2023-08-01T10:54:22;21.60;99.90
11838;DHT22;5978;51.020;6.764;2023-08-01T10:56:50;21.50;99.90
11838;DHT22;5978;51.020;6.764;2023-08-01T10:59:16;21.60;99.90
11838;DHT22;5978;51.020;6.764;2023-08-01T11:01:47;21.90;99.90
11838;DHT22;5978;51.020;6.764;2023-08-01T11:04:21;22.40;99.90
11838;DHT22;5978;51.020;6.764;2023-08-01T11:06:51;22.30;99.90
11838;DHT22;5978;51.020;6.764;2023-08-01T11:09:25;22.50;99.90
11838;DHT22;5978;51.020;6.764;2023-08-01T11:11:58;23.00;99.90
11838;DHT22;5978;51.020;6.764;2023-08-01T11:14:28;23.40;99.90
11838;DHT22;5978;51.020;6.764;2023-08-01T11:16:56;23.50;99.90
11838;DHT22;5978;51.020;6.764;2023-08-01T11:19:26;23.70;99.90
11838;DHT22;5978;51.020;6.764;2023-08-01T11:21:53;24.10;99.90
11838;DHT22;5978;51.020;6.764;2023-08-01T11:24:20;23.80;99.90
11838;DHT22;5978;51.020;6.764;2023-08-01T11:26:47;24.30;99.90
11838;DHT22;5978;51.020;6.764;2023-08-01T11:29:14;24.20;99.90
11838;DHT22;5978;51.020;6.764;2023-08-01T11:31:41;23.80;99.90
11838;DHT22;5978;51.020;6.764;2023-08-01T11:34:07;24.40;99.90
11838;DHT22;5978;51.020;6.764;2023-08-01T11:36:36;25.40;99.90
11838;DHT22;5978;51.020;6.764;2023-08-01T11:39:02;25.20;99.90
11838;DHT22;5978;51.020;6.764;2023-08-01T11:41:28;24.60;99.90
11838;DHT22;5978;51.020;6.764;2023-08-01T11:43:55;24.20;99.90
11838;DHT22;5978;51.020;6.764;2023-08-01T11:46:21;24.50;99.90
11838;DHT22;5978;51.020;6.764;2023-08-01T11:48:47;25.60;99.90
11838;DHT22;5978;51.020;6.764;2023-08-01T11:51:13;26.30;99.90
11838;DHT22;5978;51.020;6.764;2023-08-01T11:53:39;27.30;99.90
11838;DHT22;5978;51.020;6.764;2023-08-01T11:56:05;27.50;99.90
11838;DHT22;5978;51.020;6.764;2023-08-01T11:58:41;26.90;98.50
11838;DHT22;5978;51.020;6.764;2023-08-01T12:01:11;26.70;97.10
11838;DHT22;5978;51.020;6.764;2023-08-01T12:06:14;25.60;99.90
11838;DHT22;5978;51.020;6.764;2023-08-01T12:08:41;25.30;99.90
11838;DHT22;5978;51.020;6.764;2023-08-01T12:16:28;26.10;99.90
11838;DHT22;5978;51.020;6.764;2023-08-01T12:19:00;27.10;99.90
11838;DHT22;5978;51.020;6.764;2023-08-01T12:21:25;26.90;99.90
11838;DHT22;5978;51.020;6.764;2023-08-01T12:23:51;26.00;99.90
11838;DHT22;5978;51.020;6.764;2023-08-01T12:26:16;25.40;99.90
11838;DHT22;5978;51.020;6.764;2023-08-01T12:29:10;24.60;99.90
11838;DHT22;5978;51.020;6.764;2023-08-01T12:32:04;23.30;99.90
11838;DHT22;5978;51.020;6.764;2023-08-01T12:34:29;22.50;99.90
11838;DHT22;5978;51.020;6.764;2023-08-01T12:36:55;21.90;99.90
11838;DHT22;5978;51.020;6.764;2023-08-01T12:39:20;21.80;99.90
11838;DHT22;5978;51.020;6.764;2023-08-01T12:41:46;21.30;99.90
11838;DHT22;5978;51.020;6.764;2023-08-01T12:44:12;21.00;99.90
11838;DHT22;5978;51.020;6.764;2023-08-01T12:46:41;21.20;99.90
11838;DHT22;5978;51.020;6.764;2023-08-01T12:49:06;22.70;99.90
11838;DHT22;5978;51.020;6.764;2023-08-01T12:51:32;24.50;99.90
11838;DHT22;5978;51.020;6.764;2023-08-01T12:53:57;25.60;99.90
11838;DHT22;5978;51.020;6.764;2023-08-01T12:56:23;25.80;99.90
11838;DHT22;5978;51.020;6.764;2023-08-01T12:58:48;25.50;99.90
11838;DHT22;5978;51.020;6.764;2023-08-01T13:01:14;25.00;99.90
11838;DHT22;5978;51.020;6.764;2023-08-01T13:03:40;24.60;99.90
11838;DHT22;5978;51.020;6.764;2023-08-01T13:06:05;24.00;99.90
11838;DHT22;5978;51.020;6.764;2023-08-01T13:08:31;23.60;99.90
11838;DHT22;5978;51.020;6.764;2023-08-01T13:10:57;23.30;99.90
11838;DHT22;5978;51.020;6.764;2023-08-01T13:13:24;23.10;99.90
11838;DHT22;5978;51.020;6.764;2023-08-01T13:15:50;23.10;99.90
11838;DHT22;5978;51.020;6.764;2023-08-01T13:18:16;22.90;99.90
11838;DHT22;5978;51.020;6.764;2023-08-01T13:20:43;23.00;99.90
11838;DHT22;5978;51.020;6.764;2023-08-01T13:23:08;23.00;99.90
11838;DHT22;5978;51.020;6.764;2023-08-01T13:25:34;23.00;99.90
11838;DHT22;5978;51.020;6.764;2023-08-01T13:28:01;22.90;99.90
11838;DHT22;5978;51.020;6.764;2023-08-01T13:30:26;23.20;99.90
11838;DHT22;5978;51.020;6.764;2023-08-01T13:32:52;23.50;99.90
11838;DHT22;5978;51.020;6.764;2023-08-01T13:35:17;23.60;99.90
11838;DHT22;5978;51.020;6.764;2023-08-01T13:37:43;24.50;99.90
11838;DHT22;5978;51.020;6.764;2023-08-01T13:40:09;24.80;99.90
11838;DHT22;5978;51.020;6.764;2023-08-01T13:42:37;24.30;99.90
11838;DHT22;5978;51.020;6.764;2023-08-01T13:45:03;24.50;99.90
11838;DHT22;5978;51.020;6.764;2023-08-01T13:47:28;25.50;99.90
11838;DHT22;5978;51.020;6.764;2023-08-01T13:49:54;26.30;99.90
11838;DHT22;5978;51.020;6.764;2023-08-01T13:52:19;26.40;99.90
11838;DHT22;5978;51.020;6.764;2023-08-01T13:54:45;26.00;99.90
11838;DHT22;5978;51.020;6.764;2023-08-01T13:57:10;25.50;99.90
11838;DHT22;5978;51.020;6.764;2023-08-01T13:59:36;25.10;99.90
11838;DHT22;5978;51.020;6.764;2023-08-01T14:02:02;24.60;99.90
11838;DHT22;5978;51.020;6.764;2023-08-01T14:04:28;24.20;99.90
11838;DHT22;5978;51.020;6.764;2023-08-01T14:06:54;23.90;99.90
11838;DHT22;5978;51.020;6.764;2023-08-01T14:09:20;23.60;99.90
11838;DHT22;5978;51.020;6.764;2023-08-01T14:11:46;23.40;99.90
11838;DHT22;5978;51.020;6.764;2023-08-01T14:14:11;23.30;99.90
11838;DHT22;5978;51.020;6.764;2023-08-01T14:16:37;23.20;99.90
11838;DHT22;5978;51.020;6.764;2023-08-01T14:19:02;23.20;99.90
11838;DHT22;5978;51.020;6.764;2023-08-01T14:21:30;23.40;99.90
11838;DHT22;5978;51.020;6.764;2023-08-01T14:23:55;23.40;99.90
11838;DHT22;5978;51.020;6.764;2023-08-01T14:26:21;23.50;99.90
11838;DHT22;5978;51.020;6.764;2023-08-01T14:28:47;23.80;99.90
11838;DHT22;5978;51.020;6.764;2023-08-01T14:31:13;23.20;99.90
11838;DHT22;5978;51.020;6.764;2023-08-01T14:33:38;23.10;99.90
11838;DHT22;5978;51.020;6.764;2023-08-01T14:36:08;22.50;99.90
11838;DHT22;5978;51.020;6.764;2023-08-01T14:38:34;22.00;99.90
11838;DHT22;5978;51.020;6.764;2023-08-01T14:41:02;21.90;99.90
11838;DHT22;5978;51.020;6.764;2023-08-01T14:43:27;24.00;99.90
11838;DHT22;5978;51.020;6.764;2023-08-01T14:45:53;26.00;99.90
11838;DHT22;5978;51.020;6.764;2023-08-01T14:48:19;26.80;99.90
11838;DHT22;5978;51.020;6.764;2023-08-01T14:50:46;27.90;99.90
11838;DHT22;5978;51.020;6.764;2023-08-01T14:53:11;27.40;98.30
11838;DHT22;5978;51.020;6.764;2023-08-01T14:55:37;26.10;99.90
11838;DHT22;5978;51.020;6.764;2023-08-01T14:58:03;25.20;99.90
11838;DHT22;5978;51.020;6.764;2023-08-01T15:00:28;25.10;99.90
11838;DHT22;5978;51.020;6.764;2023-08-01T15:02:54;26.10;99.90
11838;DHT22;5978;51.020;6.764;2023-08-01T15:05:20;26.00;99.90
11838;DHT22;5978;51.020;6.764;2023-08-01T15:07:46;24.80;99.90
11838;DHT22;5978;51.020;6.764;2023-08-01T15:10:12;23.80;99.90
11838;DHT22;5978;51.020;6.764;2023-08-01T15:12:37;23.70;99.90
11838;DHT22;5978;51.020;6.764;2023-08-01T15:15:04;23.50;99.90
11838;DHT22;5978;51.020;6.764;2023-08-01T15:17:30;23.10;99.90
11838;DHT22;5978;51.020;6.764;2023-08-01T15:19:55;22.80;99.90
11838;DHT22;5978;51.020;6.764;2023-08-01T15:22:21;23.70;99.90
11838;DHT22;5978;51.020;6.764;2023-08-01T15:24:47;24.30;99.90
11838;DHT22;5978;51.020;6.764;2023-08-01T15:27:13;24.20;99.90
11838;DHT22;5978;51.020;6.764;2023-08-01T15:29:39;23.60;99.90
11838;DHT22;5978;51.020;6.764;2023-08-01T15:32:05;23.10;99.90
11838;DHT22;5978;51.020;6.764;2023-08-01T15:34:31;22.70;99.90
11838;DHT22;5978;51.020;6.764;2023-08-01T15:36:57;22.30;99.90
11838;DHT22;5978;51.020;6.764;2023-08-01T15:39:23;22.10;99.90
11838;DHT22;5978;51.020;6.764;2023-08-01T15:41:48;22.00;99.90
11838;DHT22;5978;51.020;6.764;2023-08-01T15:44:14;21.70;99.90
11838;DHT22;5978;51.020;6.764;2023-08-01T15:46:40;21.50;99.90
11838;DHT22;5978;51.020;6.764;2023-08-01T15:49:06;21.60;99.90
11838;DHT22;5978;51.020;6.764;2023-08-01T15:51:31;21.70;99.90
11838;DHT22;5978;51.020;6.764;2023-08-01T15:53:57;21.80;99.90